createdAt,value
2018-12-25T00:02:16.126Z,102564.02
2018-12-25T00:04:45.417Z,102563.55
2018-12-25T00:07:14.774Z,102569.52
2018-12-25T00:09:45.016Z,102566.52
2018-12-25T00:12:14.352Z,102570.89
2018-12-25T00:14:46.758Z,102573.43
2018-12-25T00:17:16.367Z,102575.20
2018-12-25T00:19:47.543Z,102563.92
2018-12-25T00:22:16.963Z,102569.53
2018-12-25T00:24:55.846Z,102565.27
2018-12-25T00:27:25.196Z,102566.09
2018-12-25T00:29:54.937Z,102569.06
2018-12-25T00:32:24.484Z,102566.41
2018-12-25T00:34:54.013Z,102569.88
2018-12-25T00:37:23.568Z,102562.56
2018-12-25T00:40:24.254Z,102547.40
2018-12-25T00:42:53.957Z,102549.16
2018-12-25T00:45:23.307Z,102552.58
2018-12-25T00:47:55.462Z,102544.37
2018-12-25T00:50:25.190Z,102541.31
2018-12-25T00:53:00.604Z,102537.00
2018-12-25T00:55:29.918Z,102540.42
2018-12-25T00:58:02.836Z,102544.32
2018-12-25T01:00:32.172Z,102547.34
2018-12-25T01:03:04.143Z,102538.70
2018-12-25T01:05:33.438Z,102551.66
2018-12-25T01:08:04.690Z,102554.20
2018-12-25T01:10:43.118Z,102560.28
2018-12-25T01:13:12.496Z,102564.19
2018-12-25T01:15:41.795Z,102578.52
2018-12-25T01:18:14.423Z,102575.41
2018-12-25T01:20:43.786Z,102581.94
2018-12-25T01:23:13.104Z,102588.80
2018-12-25T01:25:42.849Z,102588.80
2018-12-25T01:28:12.358Z,102593.58
2018-12-25T01:30:41.648Z,102597.89
2018-12-25T01:33:11.243Z,102602.20
2018-12-25T01:35:40.594Z,102596.95
2018-12-25T01:38:09.924Z,102599.97
2018-12-25T01:40:39.687Z,102597.82
2018-12-25T01:43:09.014Z,102595.22
2018-12-25T01:45:38.428Z,102591.33
2018-12-25T01:48:08.188Z,102598.17
2018-12-25T01:50:37.520Z,102594.21
2018-12-25T01:53:06.825Z,102586.77
2018-12-25T01:55:36.499Z,102599.36
2018-12-25T01:58:08.712Z,102593.28
2018-12-25T02:00:38.082Z,102603.23
2018-12-25T02:03:10.805Z,102601.48
2018-12-25T02:05:40.112Z,102601.05
2018-12-25T02:08:09.396Z,102602.36
2018-12-25T02:10:39.965Z,102595.39
2018-12-25T02:13:10.562Z,102601.05
2018-12-25T02:15:39.845Z,102604.48
2018-12-25T02:18:16.945Z,102609.67
2018-12-25T02:20:46.245Z,102605.78
2018-12-25T02:23:15.855Z,102598.40
2018-12-25T02:25:45.259Z,102599.69
2018-12-25T02:28:16.695Z,102592.72
2018-12-25T02:30:46.250Z,102583.59
2018-12-25T02:33:21.474Z,102596.56
2018-12-25T02:35:51.856Z,102602.63
2018-12-25T02:38:24.231Z,102599.63
2018-12-25T02:40:53.791Z,102591.78
2018-12-25T02:43:23.689Z,102593.48
2018-12-25T02:45:52.992Z,102590.89
2018-12-25T02:48:22.575Z,102595.25
2018-12-25T02:50:52.175Z,102588.34
2018-12-25T02:53:21.496Z,102591.28
2018-12-25T02:55:50.865Z,102585.16
2018-12-25T02:58:22.079Z,102573.45
2018-12-25T03:00:51.430Z,102568.22
2018-12-25T03:03:23.955Z,102572.64
2018-12-25T03:05:54.075Z,102568.20
2018-12-25T03:08:23.428Z,102570.33
2018-12-25T03:10:52.898Z,102575.57
2018-12-25T03:13:26.511Z,102575.57
2018-12-25T03:15:55.869Z,102561.18
2018-12-25T03:18:28.900Z,102561.18
2018-12-25T03:26:09.968Z,102580.23
2018-12-25T03:28:39.306Z,102567.19
2018-12-25T03:31:12.687Z,102568.48
2018-12-25T03:33:42.093Z,102567.11
2018-12-25T03:36:11.419Z,102569.30
2018-12-25T03:38:40.782Z,102578.30
2018-12-25T03:41:10.131Z,102559.11
2018-12-25T03:43:46.966Z,102553.91
2018-12-25T03:46:12.321Z,102558.69
2018-12-25T03:48:49.129Z,102558.69
2018-12-25T03:51:21.071Z,102557.87
2018-12-25T03:53:50.600Z,102563.06
2018-12-25T03:56:20.737Z,102563.06
2018-12-25T03:58:50.165Z,102563.41
2018-12-25T04:01:26.111Z,102573.03
2018-12-25T04:03:56.394Z,102569.89
2018-12-25T04:06:25.841Z,102565.97
2018-12-25T04:08:58.419Z,102568.16
2018-12-25T04:11:28.263Z,102567.22
2018-12-25T04:13:57.674Z,102562.48
2018-12-25T04:16:27.389Z,102552.94
2018-12-25T04:18:57.307Z,102556.23
2018-12-25T04:21:26.794Z,102568.40
2018-12-25T04:23:56.110Z,102568.40
2018-12-25T04:26:25.415Z,102571.80
2018-12-25T04:28:54.781Z,102569.16
2018-12-25T04:31:25.804Z,102569.16
2018-12-25T04:33:55.208Z,102572.55
2018-12-25T04:36:24.740Z,102572.55
2018-12-25T04:39:00.191Z,102570.91
2018-12-25T04:41:29.493Z,102570.91
2018-12-25T04:43:59.108Z,102565.66
2018-12-25T04:46:28.457Z,102573.85
2018-12-25T04:49:05.029Z,102572.14
2018-12-25T04:51:35.722Z,102572.14
2018-12-25T04:54:07.798Z,102561.13
2018-12-25T04:56:44.502Z,102573.34
2018-12-25T04:59:13.919Z,102573.34
2018-12-25T05:01:46.028Z,102568.25
2018-12-25T05:04:15.665Z,102575.21
2018-12-25T05:06:44.964Z,102576.94
2018-12-25T05:09:14.265Z,102573.44
2018-12-25T05:11:43.926Z,102582.98
2018-12-25T05:14:13.225Z,102580.38
2018-12-25T05:16:42.583Z,102576.05
2018-12-25T05:19:12.255Z,102579.92
2018-12-25T05:21:41.616Z,102575.55
2018-12-25T05:24:11.228Z,102579.86
2018-12-25T05:26:41.120Z,102580.25
2018-12-25T05:29:10.628Z,102580.25
2018-12-25T05:31:39.991Z,102577.95
2018-12-25T05:34:11.005Z,102584.12
2018-12-25T05:36:40.267Z,102584.12
2018-12-25T05:39:09.584Z,102578.52
2018-12-25T05:41:42.285Z,102567.58
2018-12-25T05:44:11.592Z,102567.58
2018-12-25T05:46:43.974Z,102584.03
2018-12-25T05:49:13.626Z,102578.84
2018-12-25T05:51:42.921Z,102584.45
2018-12-25T05:54:12.213Z,102575.70
2018-12-25T05:56:41.918Z,102577.89
2018-12-25T05:59:11.243Z,102583.94
2018-12-25T06:01:40.534Z,102583.94
2018-12-25T06:04:14.472Z,102584.77
2018-12-25T06:06:43.808Z,102597.30
2018-12-25T06:09:13.121Z,102597.30
2018-12-25T06:11:42.848Z,102601.41
2018-12-25T06:14:12.648Z,102601.41
2018-12-25T06:16:42.592Z,102603.92
2018-12-25T06:19:18.124Z,102604.13
2018-12-25T06:21:47.576Z,102604.13
2018-12-25T06:24:16.898Z,102604.13
2018-12-25T06:26:46.489Z,102586.06
2018-12-25T06:29:19.003Z,102586.06
2018-12-25T06:31:49.152Z,102589.56
2018-12-25T06:34:25.921Z,102586.97
2018-12-25T06:37:02.427Z,102586.97
2018-12-25T06:39:32.101Z,102582.58
2018-12-25T06:42:10.418Z,102592.02
2018-12-25T06:44:42.180Z,102592.02
2018-12-25T06:47:11.490Z,102585.09
2018-12-25T06:49:40.808Z,102580.84
2018-12-25T06:52:10.575Z,102578.69
2018-12-25T06:54:39.926Z,102578.69
2018-12-25T06:57:09.270Z,102574.30
2018-12-25T06:59:38.989Z,102562.55
2018-12-25T07:02:08.301Z,102583.77
2018-12-25T07:04:40.461Z,102577.77
2018-12-25T07:07:10.135Z,102582.95
2018-12-25T07:09:39.467Z,102582.95
2018-12-25T07:12:26.593Z,102582.09
2018-12-25T07:14:56.244Z,102572.13
2018-12-25T07:17:25.567Z,102585.53
2018-12-25T07:19:59.358Z,102593.72
2018-12-25T07:22:26.422Z,102593.72
2018-12-25T07:25:01.797Z,102593.72
2018-12-25T07:27:31.172Z,102595.02
2018-12-25T07:30:00.522Z,102584.48
2018-12-25T07:32:29.918Z,102584.48
2018-12-25T07:34:59.553Z,102597.13
2018-12-25T07:37:28.904Z,102596.25
2018-12-25T07:39:58.393Z,102589.36
2018-12-25T07:42:28.029Z,102589.36
2018-12-25T07:45:03.612Z,102588.00
2018-12-25T07:47:33.215Z,102595.27
2018-12-25T07:50:06.602Z,102584.95
2018-12-25T07:52:43.030Z,102582.41
2018-12-25T07:55:12.695Z,102575.78
2018-12-25T07:57:42.048Z,102575.78
2018-12-25T08:00:11.345Z,102595.27
2018-12-25T08:02:41.031Z,102594.45
2018-12-25T08:05:10.360Z,102594.08
2018-12-25T08:07:39.704Z,102594.08
2018-12-25T08:10:09.362Z,102599.25
2018-12-25T08:12:47.448Z,102587.64
2018-12-25T08:15:16.857Z,102587.64
2018-12-25T08:17:46.181Z,102573.34
2018-12-25T08:20:15.487Z,102581.64
2018-12-25T08:22:46.318Z,102579.10
2018-12-25T08:25:15.605Z,102571.05
2018-12-25T08:27:46.220Z,102564.91
2018-12-25T08:30:16.883Z,102562.80
2018-12-25T08:32:46.178Z,102567.01
2018-12-25T08:35:15.463Z,102563.52
2018-12-25T08:37:45.538Z,102567.03
2018-12-25T08:40:22.063Z,102570.50
2018-12-25T08:42:51.737Z,102570.50
2018-12-25T08:45:23.934Z,102573.09
2018-12-25T08:47:53.271Z,102572.30
2018-12-25T08:50:28.717Z,102572.30
2018-12-25T08:52:58.095Z,102585.73
2018-12-25T08:55:27.698Z,102585.73
2018-12-25T08:57:57.380Z,102585.31
2018-12-25T09:00:26.678Z,102584.53
2018-12-25T09:02:57.297Z,102586.23
2018-12-25T09:05:33.895Z,102582.02
2018-12-25T09:08:06.270Z,102582.02
2018-12-25T09:10:35.661Z,102588.19
2018-12-25T09:13:08.376Z,102582.61
2018-12-25T09:15:37.692Z,102577.91
2018-12-25T09:18:07.081Z,102575.64
2018-12-25T09:20:36.765Z,102572.73
2018-12-25T09:23:06.103Z,102572.73
2018-12-25T09:25:35.536Z,102578.20
2018-12-25T09:28:10.004Z,102578.20
2018-12-25T09:30:39.357Z,102581.13
2018-12-25T09:33:08.971Z,102590.64
2018-12-25T09:35:38.311Z,102572.37
2018-12-25T09:38:07.739Z,102605.52
2018-12-25T09:40:37.369Z,102596.80
2018-12-25T09:43:06.702Z,102594.67
2018-12-25T09:45:50.207Z,102610.06
2018-12-25T09:48:13.256Z,102613.30
2018-12-25T09:50:41.035Z,102595.66
2018-12-25T09:53:10.627Z,102593.46
2018-12-25T09:55:40.030Z,102603.32
2018-12-25T09:58:09.349Z,102604.34
2018-12-25T10:00:41.877Z,102598.17
2018-12-25T10:03:20.202Z,102596.23
2018-12-25T10:05:49.558Z,102592.76
2018-12-25T10:08:25.271Z,102599.02
2018-12-25T10:10:54.666Z,102604.35
2018-12-25T10:13:26.947Z,102597.31
2018-12-25T10:15:56.586Z,102590.83
2018-12-25T10:18:26.113Z,102596.52
2018-12-25T10:20:55.464Z,102587.03
2018-12-25T10:23:27.829Z,102591.42
2018-12-25T10:25:57.221Z,102594.05
2018-12-25T10:28:26.657Z,102594.50
2018-12-25T10:30:56.230Z,102595.36
2018-12-25T10:33:28.460Z,102595.78
2018-12-25T10:35:57.761Z,102599.27
2018-12-25T10:38:27.485Z,102598.80
2018-12-25T10:40:56.826Z,102598.80
2018-12-25T10:43:26.165Z,102607.95
2018-12-25T10:45:55.875Z,102607.49
2018-12-25T10:48:25.262Z,102616.15
2018-12-25T10:50:54.592Z,102609.59
2018-12-25T10:53:24.354Z,102603.05
2018-12-25T10:55:53.791Z,102606.10
2018-12-25T10:58:23.163Z,102597.39
2018-12-25T11:00:56.998Z,102602.63
2018-12-25T11:03:32.308Z,102591.78
2018-12-25T11:06:06.090Z,102582.98
2018-12-25T11:08:35.481Z,102573.90
2018-12-25T11:11:05.229Z,102571.38
2018-12-25T11:13:37.400Z,102569.59
2018-12-25T11:16:06.795Z,102556.55
2018-12-25T11:18:49.115Z,102550.47
2018-12-25T11:21:14.278Z,102545.36
2018-12-25T11:23:44.893Z,102531.91
2018-12-25T11:26:14.443Z,102533.61
2018-12-25T11:28:43.925Z,102527.12
2018-12-25T11:31:18.036Z,102519.33
2018-12-25T11:33:47.405Z,102515.84
2018-12-25T11:36:16.748Z,102509.38
2018-12-25T11:38:46.410Z,102508.52
2018-12-25T11:41:15.738Z,102504.58
2018-12-25T11:43:45.088Z,102496.33
2018-12-25T11:46:14.738Z,102492.88
2018-12-25T11:48:44.040Z,102501.56
2018-12-25T11:51:13.366Z,102501.55
2018-12-25T11:53:48.775Z,102504.60
2018-12-25T11:56:18.130Z,102505.04
2018-12-25T11:58:50.324Z,102511.13
2018-12-25T12:01:19.920Z,102498.95
2018-12-25T12:03:56.657Z,102498.07
2018-12-25T12:06:26.249Z,102506.33
2018-12-25T12:08:57.903Z,102510.25
2018-12-25T12:11:27.256Z,102510.25
2018-12-25T12:14:04.209Z,102515.89
2018-12-25T12:16:33.594Z,102521.97
2018-12-25T12:19:03.009Z,102525.48
2018-12-25T12:21:35.239Z,102515.46
2018-12-25T12:24:07.447Z,102512.86
2018-12-25T12:26:36.797Z,102508.50
2018-12-25T12:29:09.534Z,102503.31
2018-12-25T12:31:43.188Z,102504.17
2018-12-25T12:34:10.053Z,102507.65
2018-12-25T12:36:39.351Z,102502.88
2018-12-25T12:39:11.468Z,102495.47
2018-12-25T12:41:41.179Z,102495.46
2018-12-25T12:44:10.500Z,102501.98
2018-12-25T12:46:39.844Z,102505.03
2018-12-25T12:49:09.110Z,102511.11
2018-12-25T12:51:38.482Z,102509.38
2018-12-25T12:54:08.217Z,102509.39
2018-12-25T12:56:37.550Z,102504.59
2018-12-25T12:59:06.900Z,102513.30
2018-12-25T13:01:36.585Z,102508.95
2018-12-25T13:04:12.074Z,102504.17
2018-12-25T13:06:41.480Z,102511.98
2018-12-25T13:09:11.115Z,102516.35
2018-12-25T13:11:40.432Z,102517.63
2018-12-25T13:14:09.899Z,102510.25
2018-12-25T13:16:39.683Z,102518.50
2018-12-25T13:19:09.001Z,102517.20
2018-12-25T13:21:38.392Z,102516.32
2018-12-25T13:24:08.018Z,102516.32
2018-12-25T13:26:37.324Z,102517.15
2018-12-25T13:29:06.694Z,102518.45
2018-12-25T13:31:36.303Z,102518.86
2018-12-25T13:34:08.395Z,102515.38
2018-12-25T13:36:37.846Z,102515.81
2018-12-25T13:39:08.317Z,102520.61
2018-12-25T13:41:37.627Z,102516.30
2018-12-25T13:44:07.068Z,102518.48
2018-12-25T13:46:36.719Z,102518.05
2018-12-25T13:49:06.112Z,102509.78
2018-12-25T13:51:35.430Z,102518.04
2018-12-25T13:54:08.083Z,102514.14
2018-12-25T13:56:37.436Z,102519.34
2018-12-25T13:59:06.794Z,102531.13
2018-12-25T14:01:36.376Z,102533.30
2018-12-25T14:04:09.185Z,102528.06
2018-12-25T14:06:38.558Z,102526.34
2018-12-25T14:09:08.838Z,102535.91
2018-12-25T14:11:38.179Z,102530.23
2018-12-25T14:14:12.626Z,102530.25
2018-12-25T14:16:54.893Z,102545.02
2018-12-25T14:19:27.051Z,102536.77
2018-12-25T14:21:56.701Z,102533.73
2018-12-25T14:24:33.307Z,102540.67
2018-12-25T14:27:02.996Z,102547.20
2018-12-25T14:29:32.415Z,102547.63
2018-12-25T14:32:03.015Z,102547.63
2018-12-25T14:34:32.624Z,102544.16
2018-12-25T14:37:02.135Z,102548.94
2018-12-25T14:39:34.694Z,102553.30
2018-12-25T14:42:07.367Z,102545.04
2018-12-25T14:44:36.706Z,102539.80
2018-12-25T14:47:06.095Z,102548.94
2018-12-25T14:49:40.540Z,102545.88
2018-12-25T14:52:09.916Z,102550.22
2018-12-25T14:54:39.272Z,102549.34
2018-12-25T14:57:15.828Z,102549.32
2018-12-25T14:59:45.187Z,102556.71
2018-12-25T15:02:17.521Z,102554.55
2018-12-25T15:04:46.869Z,102548.46
2018-12-25T15:07:22.277Z,102554.12
2018-12-25T15:09:51.604Z,102558.45
2018-12-25T15:12:24.118Z,102557.60
2018-12-25T15:14:54.399Z,102555.41
2018-12-25T15:17:26.775Z,102556.73
2018-12-25T15:19:56.385Z,102560.59
2018-12-25T15:22:25.714Z,102551.91
2018-12-25T15:24:56.202Z,102553.21
2018-12-25T15:27:25.876Z,102547.54
2018-12-25T15:29:55.195Z,102554.05
2018-12-25T15:32:24.730Z,102548.87
2018-12-25T15:34:55.881Z,102554.93
2018-12-25T15:37:25.258Z,102562.31
2018-12-25T15:39:54.656Z,102558.38
2018-12-25T15:42:24.343Z,102560.54
2018-12-25T15:44:54.070Z,102563.55
2018-12-25T15:47:25.686Z,102560.50
2018-12-25T15:49:55.341Z,102558.75
2018-12-25T15:52:24.705Z,102551.39
2018-12-25T15:54:56.976Z,102554.84
2018-12-25T15:57:27.852Z,102564.78
2018-12-25T15:59:57.229Z,102562.61
2018-12-25T16:02:26.705Z,102555.20
2018-12-25T16:04:56.348Z,102552.56
2018-12-25T16:07:28.903Z,102545.13
2018-12-25T16:09:58.382Z,102548.13
2018-12-25T16:12:28.001Z,102556.32
2018-12-25T16:14:57.419Z,102561.10
2018-12-25T16:17:26.787Z,102560.68
2018-12-25T16:19:58.546Z,102561.46
2018-12-25T16:22:28.039Z,102556.71
2018-12-25T16:25:00.599Z,102554.92
2018-12-25T16:27:30.032Z,102558.44
2018-12-25T16:29:59.470Z,102552.70
2018-12-25T16:32:28.814Z,102555.77
2018-12-25T16:34:58.204Z,102557.06
2018-12-25T16:37:27.855Z,102551.36
2018-12-25T16:39:57.192Z,102544.40
2018-12-25T16:42:26.498Z,102541.80
2018-12-25T16:44:59.378Z,102553.05
2018-12-25T16:47:28.703Z,102545.70
2018-12-25T16:49:58.018Z,102539.66
2018-12-25T16:52:27.660Z,102555.69
2018-12-25T16:54:57.035Z,102555.23
2018-12-25T16:57:26.313Z,102554.81
2018-12-25T16:59:55.642Z,102560.34
2018-12-25T17:02:24.997Z,102556.91
2018-12-25T17:04:54.697Z,102546.84
2018-12-25T17:07:24.014Z,102545.63
2018-12-25T17:09:56.149Z,102552.96
2018-12-25T17:12:25.479Z,102552.13
2018-12-25T17:14:54.790Z,102544.62
2018-12-25T17:17:27.442Z,102547.68
2018-12-25T17:19:59.798Z,102550.70
2018-12-25T17:22:29.151Z,102547.63
2018-12-25T17:25:01.899Z,102543.31
2018-12-25T17:27:31.234Z,102536.39
2018-12-25T17:30:00.591Z,102534.68
2018-12-25T17:32:30.440Z,102533.42
2018-12-25T17:35:02.131Z,102536.44
2018-12-25T17:37:31.453Z,102535.98
2018-12-25T17:40:01.135Z,102541.64
2018-12-25T17:42:30.466Z,102535.98
2018-12-25T17:45:01.600Z,102537.28
2018-12-25T17:47:31.370Z,102542.02
2018-12-25T17:50:06.759Z,102537.70
2018-12-25T17:52:36.130Z,102538.11
2018-12-25T17:55:08.968Z,102541.59
2018-12-25T17:57:38.307Z,102539.00
2018-12-25T18:00:07.782Z,102534.63
2018-12-25T18:02:37.434Z,102530.31
2018-12-25T18:05:11.772Z,102541.09
2018-12-25T18:07:38.659Z,102545.91
2018-12-25T18:10:08.309Z,102543.27
2018-12-25T18:12:37.635Z,102538.53
2018-12-25T18:15:10.351Z,102544.11
2018-12-25T18:17:40.005Z,102546.75
2018-12-25T18:20:12.551Z,102543.69
2018-12-25T18:22:41.984Z,102530.17
2018-12-25T18:25:17.412Z,102530.64
2018-12-25T18:27:46.759Z,102529.34
2018-12-25T18:30:19.382Z,102525.82
2018-12-25T18:32:48.837Z,102525.77
2018-12-25T18:35:20.959Z,102526.23
2018-12-25T18:37:50.795Z,102519.32
2018-12-25T18:40:22.943Z,102523.22
2018-12-25T18:42:52.648Z,102524.52
2018-12-25T18:45:22.765Z,102525.36
2018-12-25T18:47:52.140Z,102524.47
2018-12-25T18:50:21.783Z,102527.39
2018-12-25T18:52:58.140Z,102527.84
2018-12-25T18:55:27.616Z,102530.71
2018-12-25T18:58:00.772Z,102530.75
2018-12-25T19:00:32.632Z,102521.67
2018-12-25T19:03:02.105Z,102519.53
2018-12-25T19:05:32.099Z,102521.19
2018-12-25T19:08:09.173Z,102524.16
2018-12-25T19:10:41.443Z,102518.13
2018-12-25T19:13:10.942Z,102509.03
2018-12-25T19:15:44.842Z,102522.44
2018-12-25T19:18:14.579Z,102520.20
2018-12-25T19:20:43.988Z,102519.73
2018-12-25T19:23:14.646Z,102525.70
2018-12-25T19:25:44.150Z,102528.41
2018-12-25T19:28:13.514Z,102535.73
2018-12-25T19:30:43.124Z,102536.09
2018-12-25T19:33:12.532Z,102540.02
2018-12-25T19:35:42.368Z,102535.23
2018-12-25T19:38:12.155Z,102532.59
2018-12-25T19:40:48.747Z,102527.36
2018-12-25T19:43:24.430Z,102523.86
2018-12-25T19:45:49.652Z,102527.29
2018-12-25T19:48:19.215Z,102521.73
2018-12-25T19:50:49.292Z,102522.14
2018-12-25T19:53:19.460Z,102522.97
2018-12-25T19:55:49.589Z,102529.45
2018-12-25T19:58:19.872Z,102531.23
2018-12-25T20:00:52.887Z,102523.81
2018-12-25T20:04:10.350Z,102525.09
2018-12-25T20:07:16.400Z,102519.85
2018-12-25T20:10:12.999Z,102519.85
2018-12-25T20:13:41.725Z,102515.53
2018-12-25T20:16:50.358Z,102512.47
2018-12-25T20:20:05.636Z,102507.27
2018-12-25T20:23:09.947Z,102511.11
2018-12-25T20:26:29.715Z,102515.05
2018-12-25T20:29:42.451Z,102509.41
2018-12-25T20:32:47.466Z,102494.19
2018-12-25T20:35:47.176Z,102487.60
2018-12-25T20:39:02.242Z,102487.60
2018-12-25T20:42:18.272Z,102487.62
2018-12-25T20:45:36.034Z,102477.16
2018-12-25T20:48:46.366Z,102476.35
2018-12-25T20:52:07.257Z,102470.63
2018-12-25T20:55:13.883Z,102470.62
2018-12-25T20:58:17.563Z,102464.47
2018-12-25T21:01:38.722Z,102466.23
2018-12-25T21:04:48.057Z,102458.89
2018-12-25T21:08:08.320Z,102462.35
2018-12-25T21:11:31.733Z,102458.46
2018-12-25T21:14:38.734Z,102458.46
2018-12-25T21:17:46.320Z,102457.09
2018-12-25T21:20:55.771Z,102457.09
2018-12-25T21:24:00.506Z,102447.06
2018-12-25T21:27:05.657Z,102447.06
2018-12-25T21:29:35.204Z,102435.38
2018-12-25T21:32:07.805Z,102444.59
2018-12-25T21:34:37.951Z,102450.62
2018-12-25T21:37:12.331Z,102450.62
2018-12-25T21:39:42.238Z,102437.88
2018-12-25T21:42:15.276Z,102451.44
2018-12-25T21:44:45.081Z,102437.04
2018-12-25T21:47:15.305Z,102451.31
2018-12-25T21:49:56.600Z,102457.39
2018-12-25T21:52:26.615Z,102457.39
2018-12-25T21:54:56.241Z,102449.65
2018-12-25T21:57:26.323Z,102440.58
2018-12-25T21:59:56.136Z,102432.38
2018-12-25T22:02:28.531Z,102425.86
2018-12-25T22:04:58.064Z,102422.31
2018-12-25T22:07:30.616Z,102434.91
2018-12-25T22:10:00.189Z,102438.12
2018-12-25T22:12:29.606Z,102438.12
2018-12-25T22:14:59.244Z,102426.17
2018-12-25T22:17:28.592Z,102426.17
2018-12-25T22:19:58.043Z,102419.08
2018-12-25T22:22:27.761Z,102442.90
2018-12-25T22:24:59.909Z,102444.19
2018-12-25T22:27:29.267Z,102450.77
2018-12-25T22:29:59.081Z,102447.27
2018-12-25T22:32:31.418Z,102443.36
2018-12-25T22:35:01.057Z,102461.03
2018-12-25T22:37:38.236Z,102461.03
2018-12-25T22:40:07.615Z,102467.03
2018-12-25T22:42:37.166Z,102471.35
2018-12-25T22:45:06.667Z,102475.97
2018-12-25T22:47:36.103Z,102475.97
2018-12-25T22:50:08.530Z,102463.91
2018-12-25T22:52:37.891Z,102484.41
2018-12-25T22:55:08.629Z,102484.41
2018-12-25T22:57:42.668Z,102479.52
2018-12-25T23:00:13.602Z,102464.81
2018-12-25T23:02:42.965Z,102457.77
2018-12-25T23:05:12.675Z,102450.68
2018-12-25T23:07:48.836Z,102452.73
2018-12-25T23:10:18.576Z,102452.73
2018-12-25T23:12:47.973Z,102462.02
2018-12-25T23:15:17.406Z,102449.72
2018-12-25T23:17:47.051Z,102449.72
2018-12-25T23:20:16.417Z,102427.30
2018-12-25T23:22:45.807Z,102409.16
2018-12-25T23:25:15.477Z,102409.16
2018-12-25T23:27:44.876Z,102398.31
2018-12-25T23:30:17.173Z,102398.55
2018-12-25T23:32:46.836Z,102398.55
2018-12-25T23:35:18.359Z,102414.17
2018-12-25T23:37:47.778Z,102415.50
2018-12-25T23:40:23.255Z,102415.50
2018-12-25T23:42:52.720Z,102415.63
2018-12-25T23:45:25.466Z,102424.55
2018-12-25T23:47:54.846Z,102417.97
2018-12-25T23:50:24.231Z,102413.22
2018-12-25T23:52:58.254Z,102412.64
2018-12-25T23:55:24.962Z,102402.67
2018-12-25T23:57:57.431Z,102403.89
